sensor_id;sensor_type;location;lat;lon;timestamp;temperature;humidity
21722;DHT22;11023;48.274;7.794;2022-10-19T00:00:22;15.50;99.90
21722;DHT22;11023;48.274;7.794;2022-10-19T00:02:51;15.40;99.90
21722;DHT22;11023;48.274;7.794;2022-10-19T00:05:19;15.30;99.90
21722;DHT22;11023;48.274;7.794;2022-10-19T00:07:45;15.30;99.90
21722;DHT22;11023;48.274;7.794;2022-10-19T00:10:11;15.20;99.90
21722;DHT22;11023;48.274;7.794;2022-10-19T00:12:37;15.20;99.90
21722;DHT22;11023;48.274;7.794;2022-10-19T00:15:06;15.10;99.90
21722;DHT22;11023;48.274;7.794;2022-10-19T00:17:33;15.10;99.90
21722;DHT22;11023;48.274;7.794;2022-10-19T00:19:59;15.10;99.90
21722;DHT22;11023;48.274;7.794;2022-10-19T00:22:25;15.10;99.90
21722;DHT22;11023;48.274;7.794;2022-10-19T00:24:57;15.00;99.90
21722;DHT22;11023;48.274;7.794;2022-10-19T00:27:25;14.90;99.90
21722;DHT22;11023;48.274;7.794;2022-10-19T00:29:51;14.90;99.90
21722;DHT22;11023;48.274;7.794;2022-10-19T00:32:19;14.80;99.90
21722;DHT22;11023;48.274;7.794;2022-10-19T00:34:45;14.80;99.90
21722;DHT22;11023;48.274;7.794;2022-10-19T00:37:14;14.80;99.90
21722;DHT22;11023;48.274;7.794;2022-10-19T00:39:39;14.70;99.90
21722;DHT22;11023;48.274;7.794;2022-10-19T00:42:11;14.80;99.90
21722;DHT22;11023;48.274;7.794;2022-10-19T00:47:15;14.70;99.90
21722;DHT22;11023;48.274;7.794;2022-10-19T00:49:44;14.70;99.90
21722;DHT22;11023;48.274;7.794;2022-10-19T00:52:14;14.70;99.90
21722;DHT22;11023;48.274;7.794;2022-10-19T00:54:42;14.60;99.90
21722;DHT22;11023;48.274;7.794;2022-10-19T00:57:11;14.60;99.90
21722;DHT22;11023;48.274;7.794;2022-10-19T00:59:42;14.50;99.90
21722;DHT22;11023;48.274;7.794;2022-10-19T01:02:11;14.50;99.90
21722;DHT22;11023;48.274;7.794;2022-10-19T01:04:41;14.40;99.90
21722;DHT22;11023;48.274;7.794;2022-10-19T01:07:09;14.50;99.90
21722;DHT22;11023;48.274;7.794;2022-10-19T01:09:35;14.50;99.90
21722;DHT22;11023;48.274;7.794;2022-10-19T01:18:14;14.40;99.90
21722;DHT22;11023;48.274;7.794;2022-10-19T01:21:57;14.40;99.90
21722;DHT22;11023;48.274;7.794;2022-10-19T01:27:05;14.40;99.90
21722;DHT22;11023;48.274;7.794;2022-10-19T01:32:37;14.40;99.90
21722;DHT22;11023;48.274;7.794;2022-10-19T01:35:24;14.40;99.90
21722;DHT22;11023;48.274;7.794;2022-10-19T01:38:23;14.50;99.90
21722;DHT22;11023;48.274;7.794;2022-10-19T01:41:16;14.40;99.90
21722;DHT22;11023;48.274;7.794;2022-10-19T01:49:12;14.30;99.90
21722;DHT22;11023;48.274;7.794;2022-10-19T01:51:45;14.30;99.90
21722;DHT22;11023;48.274;7.794;2022-10-19T01:54:12;14.30;99.90
21722;DHT22;11023;48.274;7.794;2022-10-19T01:56:41;14.20;99.90
21722;DHT22;11023;48.274;7.794;2022-10-19T01:59:09;14.20;99.90
21722;DHT22;11023;48.274;7.794;2022-10-19T02:01:38;14.20;99.90
21722;DHT22;11023;48.274;7.794;2022-10-19T02:04:06;14.20;99.90
21722;DHT22;11023;48.274;7.794;2022-10-19T02:06:32;14.20;99.90
21722;DHT22;11023;48.274;7.794;2022-10-19T02:08:57;14.20;99.90
21722;DHT22;11023;48.274;7.794;2022-10-19T02:11:23;14.20;99.90
21722;DHT22;11023;48.274;7.794;2022-10-19T02:13:55;14.20;99.90
21722;DHT22;11023;48.274;7.794;2022-10-19T02:16:25;14.20;99.90
21722;DHT22;11023;48.274;7.794;2022-10-19T02:18:53;14.20;99.90
21722;DHT22;11023;48.274;7.794;2022-10-19T02:21:19;14.20;99.90
21722;DHT22;11023;48.274;7.794;2022-10-19T02:23:45;14.20;99.90
21722;DHT22;11023;48.274;7.794;2022-10-19T02:26:11;14.20;99.90
21722;DHT22;11023;48.274;7.794;2022-10-19T02:28:37;14.30;99.90
21722;DHT22;11023;48.274;7.794;2022-10-19T02:31:03;14.30;99.90
21722;DHT22;11023;48.274;7.794;2022-10-19T02:33:30;14.20;99.90
21722;DHT22;11023;48.274;7.794;2022-10-19T02:35:56;14.20;99.90
21722;DHT22;11023;48.274;7.794;2022-10-19T02:38:23;14.20;99.90
21722;DHT22;11023;48.274;7.794;2022-10-19T02:41:41;14.20;99.90
21722;DHT22;11023;48.274;7.794;2022-10-19T02:44:12;14.20;99.90
21722;DHT22;11023;48.274;7.794;2022-10-19T02:47:00;14.10;99.90
21722;DHT22;11023;48.274;7.794;2022-10-19T02:49:27;14.00;99.90
21722;DHT22;11023;48.274;7.794;2022-10-19T02:52:00;14.00;99.90
21722;DHT22;11023;48.274;7.794;2022-10-19T02:54:26;14.00;99.90
21722;DHT22;11023;48.274;7.794;2022-10-19T02:56:52;14.00;99.90
21722;DHT22;11023;48.274;7.794;2022-10-19T02:59:18;13.90;99.90
21722;DHT22;11023;48.274;7.794;2022-10-19T03:01:44;13.90;99.90
21722;DHT22;11023;48.274;7.794;2022-10-19T03:04:09;13.80;99.90
21722;DHT22;11023;48.274;7.794;2022-10-19T03:06:35;13.70;99.90
21722;DHT22;11023;48.274;7.794;2022-10-19T03:09:01;13.70;99.90
21722;DHT22;11023;48.274;7.794;2022-10-19T03:11:26;13.60;99.90
21722;DHT22;11023;48.274;7.794;2022-10-19T03:13:52;13.60;99.90
21722;DHT22;11023;48.274;7.794;2022-10-19T03:16:18;13.60;99.90
21722;DHT22;11023;48.274;7.794;2022-10-19T03:18:43;13.50;99.90
21722;DHT22;11023;48.274;7.794;2022-10-19T03:21:11;13.50;99.90
21722;DHT22;11023;48.274;7.794;2022-10-19T03:23:38;13.50;99.90
21722;DHT22;11023;48.274;7.794;2022-10-19T03:26:06;13.50;99.90
21722;DHT22;11023;48.274;7.794;2022-10-19T03:28:31;13.50;99.90
21722;DHT22;11023;48.274;7.794;2022-10-19T03:30:57;13.50;99.90
21722;DHT22;11023;48.274;7.794;2022-10-19T03:33:23;13.50;99.90
21722;DHT22;11023;48.274;7.794;2022-10-19T03:35:49;13.50;99.90
21722;DHT22;11023;48.274;7.794;2022-10-19T03:38:15;13.40;99.90
21722;DHT22;11023;48.274;7.794;2022-10-19T03:40:41;13.30;99.90
21722;DHT22;11023;48.274;7.794;2022-10-19T03:43:07;13.30;99.90
21722;DHT22;11023;48.274;7.794;2022-10-19T03:45:33;13.30;99.90
21722;DHT22;11023;48.274;7.794;2022-10-19T03:47:59;13.30;99.90
21722;DHT22;11023;48.274;7.794;2022-10-19T03:50:24;13.20;99.90
21722;DHT22;11023;48.274;7.794;2022-10-19T03:52:50;13.20;99.90
21722;DHT22;11023;48.274;7.794;2022-10-19T03:55:16;13.20;99.90
21722;DHT22;11023;48.274;7.794;2022-10-19T03:57:42;13.20;99.90
21722;DHT22;11023;48.274;7.794;2022-10-19T04:00:09;13.20;99.90
21722;DHT22;11023;48.274;7.794;2022-10-19T04:03:46;13.10;99.90
21722;DHT22;11023;48.274;7.794;2022-10-19T04:06:14;13.10;99.90
21722;DHT22;11023;48.274;7.794;2022-10-19T04:08:40;13.10;99.90
21722;DHT22;11023;48.274;7.794;2022-10-19T04:11:11;13.20;99.90
21722;DHT22;11023;48.274;7.794;2022-10-19T04:13:37;13.20;99.90
21722;DHT22;11023;48.274;7.794;2022-10-19T04:16:04;13.20;99.90
21722;DHT22;11023;48.274;7.794;2022-10-19T04:18:30;13.20;99.90
21722;DHT22;11023;48.274;7.794;2022-10-19T04:20:57;13.20;99.90
21722;DHT22;11023;48.274;7.794;2022-10-19T04:23:27;13.10;99.90
21722;DHT22;11023;48.274;7.794;2022-10-19T04:25:59;13.20;99.90
21722;DHT22;11023;48.274;7.794;2022-10-19T04:28:24;13.20;99.90
21722;DHT22;11023;48.274;7.794;2022-10-19T04:30:50;13.20;99.90
21722;DHT22;11023;48.274;7.794;2022-10-19T04:33:16;13.20;99.90
21722;DHT22;11023;48.274;7.794;2022-10-19T04:35:41;13.30;99.90
21722;DHT22;11023;48.274;7.794;2022-10-19T04:38:08;13.20;99.90
21722;DHT22;11023;48.274;7.794;2022-10-19T04:40:35;13.30;99.90
21722;DHT22;11023;48.274;7.794;2022-10-19T04:43:01;13.30;99.90
21722;DHT22;11023;48.274;7.794;2022-10-19T04:45:27;13.30;99.90
21722;DHT22;11023;48.274;7.794;2022-10-19T04:47:53;13.30;99.90
21722;DHT22;11023;48.274;7.794;2022-10-19T04:50:22;13.30;99.90
21722;DHT22;11023;48.274;7.794;2022-10-19T04:52:47;13.40;99.90
21722;DHT22;11023;48.274;7.794;2022-10-19T04:55:13;13.30;99.90
21722;DHT22;11023;48.274;7.794;2022-10-19T04:57:39;13.40;99.90
21722;DHT22;11023;48.274;7.794;2022-10-19T05:00:05;13.40;99.90
21722;DHT22;11023;48.274;7.794;2022-10-19T05:02:32;13.40;99.90
21722;DHT22;11023;48.274;7.794;2022-10-19T05:04:58;13.40;99.90
21722;DHT22;11023;48.274;7.794;2022-10-19T05:07:23;13.40;99.90
21722;DHT22;11023;48.274;7.794;2022-10-19T05:09:50;13.40;99.90
21722;DHT22;11023;48.274;7.794;2022-10-19T05:12:16;13.40;99.90
21722;DHT22;11023;48.274;7.794;2022-10-19T05:14:44;13.40;99.90
21722;DHT22;11023;48.274;7.794;2022-10-19T05:17:12;13.40;99.90
21722;DHT22;11023;48.274;7.794;2022-10-19T05:19:41;13.40;99.90
21722;DHT22;11023;48.274;7.794;2022-10-19T05:22:07;13.40;99.90
21722;DHT22;11023;48.274;7.794;2022-10-19T05:24:33;13.40;99.90
21722;DHT22;11023;48.274;7.794;2022-10-19T05:27:01;13.40;99.90
21722;DHT22;11023;48.274;7.794;2022-10-19T05:29:27;13.40;99.90
21722;DHT22;11023;48.274;7.794;2022-10-19T05:31:53;13.30;99.90
21722;DHT22;11023;48.274;7.794;2022-10-19T05:34:19;13.40;99.90
21722;DHT22;11023;48.274;7.794;2022-10-19T05:36:47;13.40;99.90
21722;DHT22;11023;48.274;7.794;2022-10-19T05:39:15;13.40;99.90
21722;DHT22;11023;48.274;7.794;2022-10-19T05:41:45;13.30;99.90
21722;DHT22;11023;48.274;7.794;2022-10-19T05:44:18;13.30;99.90
21722;DHT22;11023;48.274;7.794;2022-10-19T05:46:48;13.30;99.90
21722;DHT22;11023;48.274;7.794;2022-10-19T05:49:16;13.40;99.90
21722;DHT22;11023;48.274;7.794;2022-10-19T05:51:46;13.30;99.90
21722;DHT22;11023;48.274;7.794;2022-10-19T05:54:13;13.30;99.90
21722;DHT22;11023;48.274;7.794;2022-10-19T05:56:40;13.30;99.90
21722;DHT22;11023;48.274;7.794;2022-10-19T05:59:08;13.30;99.90
21722;DHT22;11023;48.274;7.794;2022-10-19T06:01:38;13.40;99.90
21722;DHT22;11023;48.274;7.794;2022-10-19T06:04:09;13.40;99.90
21722;DHT22;11023;48.274;7.794;2022-10-19T06:06:35;13.40;99.90
21722;DHT22;11023;48.274;7.794;2022-10-19T06:09:01;13.40;99.90
21722;DHT22;11023;48.274;7.794;2022-10-19T06:11:32;13.40;99.90
21722;DHT22;11023;48.274;7.794;2022-10-19T06:14:05;13.40;99.90
21722;DHT22;11023;48.274;7.794;2022-10-19T06:16:34;13.30;99.90
21722;DHT22;11023;48.274;7.794;2022-10-19T06:19:04;13.40;99.90
21722;DHT22;11023;48.274;7.794;2022-10-19T06:21:31;13.40;99.90
21722;DHT22;11023;48.274;7.794;2022-10-19T06:24:01;13.40;99.90
21722;DHT22;11023;48.274;7.794;2022-10-19T06:26:28;13.40;99.90
21722;DHT22;11023;48.274;7.794;2022-10-19T06:28:56;13.40;99.90
21722;DHT22;11023;48.274;7.794;2022-10-19T06:31:28;13.50;99.90
21722;DHT22;11023;48.274;7.794;2022-10-19T06:33:58;13.50;99.90
21722;DHT22;11023;48.274;7.794;2022-10-19T06:36:29;13.60;99.90
21722;DHT22;11023;48.274;7.794;2022-10-19T06:38:58;13.60;99.90
21722;DHT22;11023;48.274;7.794;2022-10-19T06:41:28;13.60;99.90
21722;DHT22;11023;48.274;7.794;2022-10-19T06:43:57;13.60;99.90
21722;DHT22;11023;48.274;7.794;2022-10-19T06:46:24;13.70;99.90
21722;DHT22;11023;48.274;7.794;2022-10-19T06:48:56;13.70;99.90
21722;DHT22;11023;48.274;7.794;2022-10-19T06:51:22;13.70;99.90
21722;DHT22;11023;48.274;7.794;2022-10-19T06:53:52;13.70;99.90
21722;DHT22;11023;48.274;7.794;2022-10-19T06:56:18;13.80;99.90
21722;DHT22;11023;48.274;7.794;2022-10-19T06:58:44;13.80;99.90
21722;DHT22;11023;48.274;7.794;2022-10-19T07:01:10;13.80;99.90
21722;DHT22;11023;48.274;7.794;2022-10-19T07:03:38;13.80;99.90
21722;DHT22;11023;48.274;7.794;2022-10-19T07:06:10;13.90;99.90
21722;DHT22;11023;48.274;7.794;2022-10-19T07:08:40;13.90;99.90
21722;DHT22;11023;48.274;7.794;2022-10-19T07:11:09;14.00;99.90
21722;DHT22;11023;48.274;7.794;2022-10-19T07:13:36;14.00;99.90
21722;DHT22;11023;48.274;7.794;2022-10-19T07:16:12;14.00;99.90
21722;DHT22;11023;48.274;7.794;2022-10-19T07:18:41;14.10;99.90
21722;DHT22;11023;48.274;7.794;2022-10-19T07:21:13;14.10;99.90
21722;DHT22;11023;48.274;7.794;2022-10-19T07:23:41;14.10;99.90
21722;DHT22;11023;48.274;7.794;2022-10-19T07:26:16;14.20;99.90
21722;DHT22;11023;48.274;7.794;2022-10-19T07:28:44;14.20;99.90
21722;DHT22;11023;48.274;7.794;2022-10-19T07:31:12;14.20;99.90
21722;DHT22;11023;48.274;7.794;2022-10-19T07:33:39;14.20;99.90
21722;DHT22;11023;48.274;7.794;2022-10-19T07:36:08;14.20;99.90
21722;DHT22;11023;48.274;7.794;2022-10-19T07:38:35;14.30;99.90
21722;DHT22;11023;48.274;7.794;2022-10-19T07:41:10;14.30;99.90
21722;DHT22;11023;48.274;7.794;2022-10-19T07:43:40;14.30;99.90
21722;DHT22;11023;48.274;7.794;2022-10-19T07:46:09;14.40;99.90
21722;DHT22;11023;48.274;7.794;2022-10-19T07:48:35;14.40;99.90
21722;DHT22;11023;48.274;7.794;2022-10-19T07:51:03;14.40;99.90
21722;DHT22;11023;48.274;7.794;2022-10-19T07:53:29;14.50;99.90
21722;DHT22;11023;48.274;7.794;2022-10-19T07:55:55;14.60;99.90
21722;DHT22;11023;48.274;7.794;2022-10-19T07:58:21;14.50;99.90
21722;DHT22;11023;48.274;7.794;2022-10-19T08:00:46;14.60;99.90
21722;DHT22;11023;48.274;7.794;2022-10-19T08:03:12;14.70;99.90
21722;DHT22;11023;48.274;7.794;2022-10-19T08:05:38;14.70;99.90
21722;DHT22;11023;48.274;7.794;2022-10-19T08:08:04;14.70;99.90
21722;DHT22;11023;48.274;7.794;2022-10-19T08:10:30;14.70;99.90
21722;DHT22;11023;48.274;7.794;2022-10-19T08:12:55;14.70;99.90
21722;DHT22;11023;48.274;7.794;2022-10-19T08:15:21;14.70;99.90
21722;DHT22;11023;48.274;7.794;2022-10-19T08:17:47;14.70;99.90
21722;DHT22;11023;48.274;7.794;2022-10-19T08:20:12;14.70;99.90
21722;DHT22;11023;48.274;7.794;2022-10-19T08:22:38;14.70;99.90
21722;DHT22;11023;48.274;7.794;2022-10-19T08:25:04;14.70;99.90
21722;DHT22;11023;48.274;7.794;2022-10-19T08:27:30;14.60;99.90
21722;DHT22;11023;48.274;7.794;2022-10-19T08:29:55;14.60;99.90
21722;DHT22;11023;48.274;7.794;2022-10-19T08:32:21;14.60;99.90
21722;DHT22;11023;48.274;7.794;2022-10-19T08:34:47;14.60;99.90
21722;DHT22;11023;48.274;7.794;2022-10-19T08:37:12;14.60;99.90
21722;DHT22;11023;48.274;7.794;2022-10-19T08:39:38;14.60;99.90
21722;DHT22;11023;48.274;7.794;2022-10-19T08:42:10;14.60;99.90
21722;DHT22;11023;48.274;7.794;2022-10-19T08:49:59;14.70;99.90
21722;DHT22;11023;48.274;7.794;2022-10-19T08:52:31;14.60;99.90
21722;DHT22;11023;48.274;7.794;2022-10-19T08:55:02;14.60;99.90
21722;DHT22;11023;48.274;7.794;2022-10-19T09:07:59;14.60;99.90
21722;DHT22;11023;48.274;7.794;2022-10-19T09:10:29;14.70;99.90
21722;DHT22;11023;48.274;7.794;2022-10-19T09:15:44;14.80;99.90
21722;DHT22;11023;48.274;7.794;2022-10-19T09:18:13;14.80;99.90
21722;DHT22;11023;48.274;7.794;2022-10-19T09:20:46;14.90;99.90
21722;DHT22;11023;48.274;7.794;2022-10-19T09:23:28;15.00;99.90
21722;DHT22;11023;48.274;7.794;2022-10-19T09:25:55;15.00;99.90
21722;DHT22;11023;48.274;7.794;2022-10-19T09:34:15;15.10;99.90
21722;DHT22;11023;48.274;7.794;2022-10-19T09:36:52;15.30;99.90
21722;DHT22;11023;48.274;7.794;2022-10-19T09:39:19;15.30;99.90
21722;DHT22;11023;48.274;7.794;2022-10-19T09:41:49;15.40;99.90
21722;DHT22;11023;48.274;7.794;2022-10-19T09:44:16;15.40;99.90
21722;DHT22;11023;48.274;7.794;2022-10-19T09:50:13;15.60;99.90
21722;DHT22;11023;48.274;7.794;2022-10-19T09:52:41;15.60;99.90
21722;DHT22;11023;48.274;7.794;2022-10-19T09:57:57;15.70;99.90
21722;DHT22;11023;48.274;7.794;2022-10-19T10:00:25;15.80;99.90
21722;DHT22;11023;48.274;7.794;2022-10-19T10:02:56;15.80;99.90
21722;DHT22;11023;48.274;7.794;2022-10-19T10:05:37;15.90;99.90
21722;DHT22;11023;48.274;7.794;2022-10-19T10:08:10;15.80;99.90
21722;DHT22;11023;48.274;7.794;2022-10-19T10:10:38;15.90;99.90
21722;DHT22;11023;48.274;7.794;2022-10-19T10:13:18;16.00;99.90
21722;DHT22;11023;48.274;7.794;2022-10-19T10:15:49;16.10;99.90
21722;DHT22;11023;48.274;7.794;2022-10-19T10:18:17;16.10;99.90
21722;DHT22;11023;48.274;7.794;2022-10-19T10:21:02;16.20;99.90
21722;DHT22;11023;48.274;7.794;2022-10-19T10:23:31;16.10;99.90
21722;DHT22;11023;48.274;7.794;2022-10-19T10:26:01;16.20;99.90
21722;DHT22;11023;48.274;7.794;2022-10-19T10:28:28;16.20;99.90
21722;DHT22;11023;48.274;7.794;2022-10-19T10:30:59;16.20;99.90
21722;DHT22;11023;48.274;7.794;2022-10-19T10:33:27;16.20;99.90
21722;DHT22;11023;48.274;7.794;2022-10-19T10:35:56;16.30;99.90
21722;DHT22;11023;48.274;7.794;2022-10-19T10:38:29;16.30;99.90
21722;DHT22;11023;48.274;7.794;2022-10-19T10:41:00;16.40;99.90
21722;DHT22;11023;48.274;7.794;2022-10-19T10:43:33;16.40;99.90
21722;DHT22;11023;48.274;7.794;2022-10-19T10:46:15;16.30;99.90
21722;DHT22;11023;48.274;7.794;2022-10-19T10:48:50;16.40;99.90
21722;DHT22;11023;48.274;7.794;2022-10-19T10:51:39;16.50;99.90
21722;DHT22;11023;48.274;7.794;2022-10-19T10:54:30;16.60;99.90
21722;DHT22;11023;48.274;7.794;2022-10-19T10:57:14;16.60;99.90
21722;DHT22;11023;48.274;7.794;2022-10-19T11:05:38;16.80;99.90
21722;DHT22;11023;48.274;7.794;2022-10-19T11:13:52;16.80;99.90
21722;DHT22;11023;48.274;7.794;2022-10-19T11:16:45;16.90;99.90
21722;DHT22;11023;48.274;7.794;2022-10-19T11:29:49;17.10;99.90
21722;DHT22;11023;48.274;7.794;2022-10-19T11:32:31;17.10;99.90
21722;DHT22;11023;48.274;7.794;2022-10-19T11:46:44;16.90;99.90
21722;DHT22;11023;48.274;7.794;2022-10-19T11:49:55;16.90;99.90
21722;DHT22;11023;48.274;7.794;2022-10-19T12:06:43;17.00;99.90
21722;DHT22;11023;48.274;7.794;2022-10-19T12:09:23;17.00;99.90
21722;DHT22;11023;48.274;7.794;2022-10-19T12:12:25;16.90;99.90
21722;DHT22;11023;48.274;7.794;2022-10-19T12:15:22;16.90;99.90
21722;DHT22;11023;48.274;7.794;2022-10-19T12:17:47;16.90;99.90
21722;DHT22;11023;48.274;7.794;2022-10-19T12:20:32;16.90;99.90
21722;DHT22;11023;48.274;7.794;2022-10-19T12:23:30;16.80;99.90
21722;DHT22;11023;48.274;7.794;2022-10-19T12:26:00;16.90;99.90
21722;DHT22;11023;48.274;7.794;2022-10-19T12:28:33;16.90;99.90
21722;DHT22;11023;48.274;7.794;2022-10-19T12:31:00;17.00;99.90
21722;DHT22;11023;48.274;7.794;2022-10-19T12:39:18;17.00;99.90
21722;DHT22;11023;48.274;7.794;2022-10-19T12:47:14;17.10;99.90
21722;DHT22;11023;48.274;7.794;2022-10-19T12:49:47;17.30;99.90
21722;DHT22;11023;48.274;7.794;2022-10-19T12:52:15;17.40;99.90
21722;DHT22;11023;48.274;7.794;2022-10-19T12:54:42;17.60;99.90
21722;DHT22;11023;48.274;7.794;2022-10-19T12:57:26;17.70;99.90
21722;DHT22;11023;48.274;7.794;2022-10-19T13:03:06;18.10;99.90
21722;DHT22;11023;48.274;7.794;2022-10-19T13:05:38;18.20;99.90
21722;DHT22;11023;48.274;7.794;2022-10-19T13:08:05;18.30;99.90
21722;DHT22;11023;48.274;7.794;2022-10-19T13:10:32;18.40;99.90
21722;DHT22;11023;48.274;7.794;2022-10-19T13:12:59;18.50;99.90
21722;DHT22;11023;48.274;7.794;2022-10-19T13:18:01;18.80;99.90
21722;DHT22;11023;48.274;7.794;2022-10-19T13:41:25;19.40;99.90
21722;DHT22;11023;48.274;7.794;2022-10-19T13:51:56;19.40;99.90
21722;DHT22;11023;48.274;7.794;2022-10-19T14:07:29;19.70;99.90
21722;DHT22;11023;48.274;7.794;2022-10-19T14:12:34;19.90;99.90
21722;DHT22;11023;48.274;7.794;2022-10-19T14:15:12;20.00;99.90
21722;DHT22;11023;48.274;7.794;2022-10-19T14:17:41;20.20;99.90
21722;DHT22;11023;48.274;7.794;2022-10-19T14:22:53;20.20;99.90
21722;DHT22;11023;48.274;7.794;2022-10-19T14:25:24;20.20;99.90
21722;DHT22;11023;48.274;7.794;2022-10-19T14:28:00;20.20;99.90
21722;DHT22;11023;48.274;7.794;2022-10-19T14:30:33;20.20;99.90
21722;DHT22;11023;48.274;7.794;2022-10-19T14:33:05;20.30;99.90
21722;DHT22;11023;48.274;7.794;2022-10-19T14:35:37;20.20;99.90
21722;DHT22;11023;48.274;7.794;2022-10-19T14:38:05;20.20;99.90
21722;DHT22;11023;48.274;7.794;2022-10-19T14:40:41;20.20;99.90
21722;DHT22;11023;48.274;7.794;2022-10-19T14:43:26;20.00;99.90
21722;DHT22;11023;48.274;7.794;2022-10-19T14:46:28;20.10;99.90
21722;DHT22;11023;48.274;7.794;2022-10-19T14:49:03;20.20;99.90
21722;DHT22;11023;48.274;7.794;2022-10-19T14:51:42;20.20;99.90
21722;DHT22;11023;48.274;7.794;2022-10-19T14:54:29;20.20;99.90
21722;DHT22;11023;48.274;7.794;2022-10-19T15:02:21;20.20;99.90
21722;DHT22;11023;48.274;7.794;2022-10-19T15:04:49;20.20;99.90
21722;DHT22;11023;48.274;7.794;2022-10-19T15:07:23;20.10;99.90
21722;DHT22;11023;48.274;7.794;2022-10-19T15:09:57;20.10;99.90
21722;DHT22;11023;48.274;7.794;2022-10-19T15:12:28;20.20;99.90
21722;DHT22;11023;48.274;7.794;2022-10-19T15:14:55;20.20;99.90
21722;DHT22;11023;48.274;7.794;2022-10-19T15:17:27;20.10;99.90
21722;DHT22;11023;48.274;7.794;2022-10-19T15:19:54;20.10;99.90
21722;DHT22;11023;48.274;7.794;2022-10-19T15:25:23;19.90;99.90
21722;DHT22;11023;48.274;7.794;2022-10-19T15:27:49;19.90;99.90
21722;DHT22;11023;48.274;7.794;2022-10-19T15:30:22;19.90;99.90
21722;DHT22;11023;48.274;7.794;2022-10-19T15:32:56;19.80;99.90
21722;DHT22;11023;48.274;7.794;2022-10-19T15:35:34;19.80;99.90
21722;DHT22;11023;48.274;7.794;2022-10-19T15:38:15;19.70;99.90
21722;DHT22;11023;48.274;7.794;2022-10-19T15:40:43;19.60;99.90
21722;DHT22;11023;48.274;7.794;2022-10-19T15:46:18;19.70;99.90
21722;DHT22;11023;48.274;7.794;2022-10-19T15:49:18;19.70;99.90
21722;DHT22;11023;48.274;7.794;2022-10-19T15:51:36;19.60;99.90
21722;DHT22;11023;48.274;7.794;2022-10-19T15:54:04;19.60;99.90
21722;DHT22;11023;48.274;7.794;2022-10-19T15:56:34;19.50;99.90
21722;DHT22;11023;48.274;7.794;2022-10-19T15:59:02;19.50;99.90
21722;DHT22;11023;48.274;7.794;2022-10-19T16:01:30;19.40;99.90
21722;DHT22;11023;48.274;7.794;2022-10-19T16:03:56;19.40;99.90
21722;DHT22;11023;48.274;7.794;2022-10-19T16:06:24;19.30;99.90
21722;DHT22;11023;48.274;7.794;2022-10-19T16:08:50;19.30;99.90
21722;DHT22;11023;48.274;7.794;2022-10-19T16:11:18;19.20;99.90
21722;DHT22;11023;48.274;7.794;2022-10-19T16:13:44;19.10;99.90
21722;DHT22;11023;48.274;7.794;2022-10-19T16:16:19;19.00;99.90
21722;DHT22;11023;48.274;7.794;2022-10-19T16:18:46;18.90;99.90
21722;DHT22;11023;48.274;7.794;2022-10-19T16:21:12;18.80;99.90
21722;DHT22;11023;48.274;7.794;2022-10-19T16:23:38;18.70;99.90
21722;DHT22;11023;48.274;7.794;2022-10-19T16:26:05;18.60;99.90
21722;DHT22;11023;48.274;7.794;2022-10-19T16:28:31;18.50;99.90
21722;DHT22;11023;48.274;7.794;2022-10-19T16:30:57;18.40;99.90
21722;DHT22;11023;48.274;7.794;2022-10-19T16:33:22;18.30;99.90
21722;DHT22;11023;48.274;7.794;2022-10-19T16:35:48;18.30;99.90
21722;DHT22;11023;48.274;7.794;2022-10-19T16:38:14;18.30;99.90
21722;DHT22;11023;48.274;7.794;2022-10-19T16:40:39;18.20;99.90
21722;DHT22;11023;48.274;7.794;2022-10-19T16:43:05;18.10;99.90
21722;DHT22;11023;48.274;7.794;2022-10-19T16:45:31;18.10;99.90
21722;DHT22;11023;48.274;7.794;2022-10-19T16:47:57;18.00;99.90
21722;DHT22;11023;48.274;7.794;2022-10-19T16:50:23;17.90;99.90
21722;DHT22;11023;48.274;7.794;2022-10-19T16:53:09;17.80;99.90
21722;DHT22;11023;48.274;7.794;2022-10-19T16:55:36;17.70;99.90
21722;DHT22;11023;48.274;7.794;2022-10-19T16:58:03;17.60;99.90
21722;DHT22;11023;48.274;7.794;2022-10-19T17:00:28;17.60;99.90
21722;DHT22;11023;48.274;7.794;2022-10-19T17:02:54;17.40;99.90
21722;DHT22;11023;48.274;7.794;2022-10-19T17:05:20;17.30;99.90
21722;DHT22;11023;48.274;7.794;2022-10-19T17:07:47;17.30;99.90
21722;DHT22;11023;48.274;7.794;2022-10-19T17:10:13;17.20;99.90
21722;DHT22;11023;48.274;7.794;2022-10-19T17:12:41;17.10;99.90
21722;DHT22;11023;48.274;7.794;2022-10-19T17:15:08;17.10;99.90
21722;DHT22;11023;48.274;7.794;2022-10-19T17:17:33;17.10;99.90
21722;DHT22;11023;48.274;7.794;2022-10-19T17:19:59;17.00;99.90
21722;DHT22;11023;48.274;7.794;2022-10-19T17:22:25;16.90;99.90
21722;DHT22;11023;48.274;7.794;2022-10-19T17:24:51;16.80;99.90
21722;DHT22;11023;48.274;7.794;2022-10-19T17:27:18;16.70;99.90
21722;DHT22;11023;48.274;7.794;2022-10-19T17:29:44;16.70;99.90
21722;DHT22;11023;48.274;7.794;2022-10-19T17:32:10;16.70;99.90
21722;DHT22;11023;48.274;7.794;2022-10-19T17:34:36;16.70;99.90
21722;DHT22;11023;48.274;7.794;2022-10-19T17:37:02;16.70;99.90
21722;DHT22;11023;48.274;7.794;2022-10-19T17:39:28;16.60;99.90
21722;DHT22;11023;48.274;7.794;2022-10-19T17:41:53;16.60;99.90
21722;DHT22;11023;48.274;7.794;2022-10-19T17:44:20;16.50;99.90
21722;DHT22;11023;48.274;7.794;2022-10-19T17:46:46;16.40;99.90
21722;DHT22;11023;48.274;7.794;2022-10-19T17:49:13;16.40;99.90
21722;DHT22;11023;48.274;7.794;2022-10-19T17:51:39;16.30;99.90
21722;DHT22;11023;48.274;7.794;2022-10-19T17:54:11;16.20;99.90
21722;DHT22;11023;48.274;7.794;2022-10-19T17:56:37;16.20;99.90
21722;DHT22;11023;48.274;7.794;2022-10-19T17:59:04;16.10;99.90
21722;DHT22;11023;48.274;7.794;2022-10-19T18:01:32;16.00;99.90
21722;DHT22;11023;48.274;7.794;2022-10-19T18:04:00;16.00;99.90
21722;DHT22;11023;48.274;7.794;2022-10-19T18:06:28;15.90;99.90
21722;DHT22;11023;48.274;7.794;2022-10-19T18:08:56;15.90;99.90
21722;DHT22;11023;48.274;7.794;2022-10-19T18:11:31;15.80;99.90
21722;DHT22;11023;48.274;7.794;2022-10-19T18:14:00;15.80;99.90
21722;DHT22;11023;48.274;7.794;2022-10-19T18:16:45;15.70;99.90
21722;DHT22;11023;48.274;7.794;2022-10-19T18:19:15;15.70;99.90
21722;DHT22;11023;48.274;7.794;2022-10-19T18:21:43;15.60;99.90
21722;DHT22;11023;48.274;7.794;2022-10-19T18:24:12;15.70;99.90
21722;DHT22;11023;48.274;7.794;2022-10-19T18:26:40;15.60;99.90
21722;DHT22;11023;48.274;7.794;2022-10-19T18:29:18;15.60;99.90
21722;DHT22;11023;48.274;7.794;2022-10-19T18:31:45;15.60;99.90
21722;DHT22;11023;48.274;7.794;2022-10-19T18:34:17;15.60;99.90
21722;DHT22;11023;48.274;7.794;2022-10-19T18:36:44;15.50;99.90
21722;DHT22;11023;48.274;7.794;2022-10-19T18:39:11;15.50;99.90
21722;DHT22;11023;48.274;7.794;2022-10-19T18:41:37;15.50;99.90